Hlavní strana
METAR-TAF:

METAR-TAF

Letiště :

Atyrau, Kazachstán

zeměpisná šířka: 47-07-19N, zeměpisná délka: 051-49-17E, výška: -22 m

Aktuální stav počasí

Zpráva byla vytvořena před 34 minutami, v 12:00 UTC
Severoseverozápadní vítr 16 kt
Teplota 32°C
Vlhkost vzduchu 34%
Tlak 1008 hPa
Viditelnost 10 km a více
Žádná oblačnost pod 1500 m, nevyskytují se cumulonimby.

METAR: UATG 041200Z 33008MPS CAVOK 32/14 Q1008 R32/CLRD70 NOSIG RMK QFE757/1010

Čas: 18:34 (12:34 UTC)

Předpověď počasí

Zpráva byla vytvořena před 1 hodinou a 33 minutami, v 11:01 UTC
Předpověď platná od 04 v 12 UTC do 05 v 12 UTC
Severozápadní vítr 17 kt s nárazy do 27 kt
Viditelnost 10 km a více
Polojasno ve výšce 3300 ft, Cumulonimbus.
Změna
od 04 v 18 UTC do 04 v 19 UTC
Západoseverozápadní vítr 17 kt

TAF: UATG 041101Z 0412/0512 32009G14MPS 9999 SCT033CB TX31/0512Z TN22/0501Z BECMG 0418/0419 30009MPS

Stav a předpovědi počasí z více než 4 000 letišť (zprávy METAR a TAF).

Červené a žluté tečky na mapě představují dostupné meteorologické stanice.

Když kurzor umístíte na tečku, zobrazí se název stanice.

Pak kliknutím zobrazíte stav a předpověď počasí.

Chcete-li změnit mapu, kliknutím na zelené tlačítko se znaménkem +mapu přiblížíte, kliknutím na zelené tlačítko se znaménkem – mapu oddálíte a kliknutím na zelené šipky přejdete na sousední mapy.


METAR-TAF: